sensor_id;sensor_type;location;lat;lon;timestamp;temperature;humidity
12303;DHT22;6214;48.012;7.862;2023-04-01T00:01:27;10.80;99.90
12303;DHT22;6214;48.012;7.862;2023-04-01T00:03:54;10.70;99.90
12303;DHT22;6214;48.012;7.862;2023-04-01T00:06:22;10.50;99.90
12303;DHT22;6214;48.012;7.862;2023-04-01T00:08:49;10.40;99.90
12303;DHT22;6214;48.012;7.862;2023-04-01T00:11:16;10.30;99.90
12303;DHT22;6214;48.012;7.862;2023-04-01T00:13:46;10.20;99.90
12303;DHT22;6214;48.012;7.862;2023-04-01T00:16:14;10.20;99.90
12303;DHT22;6214;48.012;7.862;2023-04-01T00:18:44;10.30;99.90
12303;DHT22;6214;48.012;7.862;2023-04-01T00:21:14;10.40;99.90
12303;DHT22;6214;48.012;7.862;2023-04-01T00:23:41;10.40;99.90
12303;DHT22;6214;48.012;7.862;2023-04-01T00:26:08;10.30;99.90
12303;DHT22;6214;48.012;7.862;2023-04-01T00:28:35;10.30;99.90
12303;DHT22;6214;48.012;7.862;2023-04-01T00:31:07;10.30;99.90
12303;DHT22;6214;48.012;7.862;2023-04-01T00:33:34;10.20;99.90
12303;DHT22;6214;48.012;7.862;2023-04-01T00:36:21;10.30;99.90
12303;DHT22;6214;48.012;7.862;2023-04-01T00:38:49;10.30;99.90
12303;DHT22;6214;48.012;7.862;2023-04-01T00:41:16;10.20;99.90
12303;DHT22;6214;48.012;7.862;2023-04-01T00:43:47;10.30;99.90
12303;DHT22;6214;48.012;7.862;2023-04-01T00:46:14;10.30;99.90
12303;DHT22;6214;48.012;7.862;2023-04-01T00:48:51;10.20;99.90
12303;DHT22;6214;48.012;7.862;2023-04-01T00:51:27;10.30;99.90
12303;DHT22;6214;48.012;7.862;2023-04-01T00:53:55;10.30;99.90
12303;DHT22;6214;48.012;7.862;2023-04-01T00:56:31;10.40;99.90
12303;DHT22;6214;48.012;7.862;2023-04-01T00:59:03;10.40;99.90
12303;DHT22;6214;48.012;7.862;2023-04-01T01:01:31;10.40;99.90
12303;DHT22;6214;48.012;7.862;2023-04-01T01:03:59;10.50;99.90
12303;DHT22;6214;48.012;7.862;2023-04-01T01:07:12;10.50;99.90
12303;DHT22;6214;48.012;7.862;2023-04-01T01:09:41;10.60;99.90
12303;DHT22;6214;48.012;7.862;2023-04-01T01:12:40;10.70;99.90
12303;DHT22;6214;48.012;7.862;2023-04-01T01:17:58;10.50;99.90
12303;DHT22;6214;48.012;7.862;2023-04-01T01:37:17;10.40;99.90
12303;DHT22;6214;48.012;7.862;2023-04-01T01:39:58;10.40;99.90
12303;DHT22;6214;48.012;7.862;2023-04-01T01:42:28;10.50;99.90
12303;DHT22;6214;48.012;7.862;2023-04-01T01:44:57;10.50;99.90
12303;DHT22;6214;48.012;7.862;2023-04-01T01:47:26;10.50;99.90
12303;DHT22;6214;48.012;7.862;2023-04-01T01:49:55;10.50;99.90
12303;DHT22;6214;48.012;7.862;2023-04-01T01:52:23;10.60;99.90
12303;DHT22;6214;48.012;7.862;2023-04-01T01:54:54;10.60;99.90
12303;DHT22;6214;48.012;7.862;2023-04-01T01:57:42;10.50;99.90
12303;DHT22;6214;48.012;7.862;2023-04-01T02:00:12;10.50;99.90
12303;DHT22;6214;48.012;7.862;2023-04-01T02:02:44;10.60;99.90
12303;DHT22;6214;48.012;7.862;2023-04-01T02:05:16;10.60;99.90
12303;DHT22;6214;48.012;7.862;2023-04-01T02:07:48;10.70;99.90
12303;DHT22;6214;48.012;7.862;2023-04-01T02:10:16;10.70;99.90
12303;DHT22;6214;48.012;7.862;2023-04-01T02:12:46;10.70;99.90
12303;DHT22;6214;48.012;7.862;2023-04-01T02:15:15;10.80;99.90
12303;DHT22;6214;48.012;7.862;2023-04-01T02:17:45;10.70;99.90
12303;DHT22;6214;48.012;7.862;2023-04-01T02:20:16;10.70;99.90
12303;DHT22;6214;48.012;7.862;2023-04-01T02:22:48;10.60;99.90
12303;DHT22;6214;48.012;7.862;2023-04-01T02:25:29;10.70;99.90
12303;DHT22;6214;48.012;7.862;2023-04-01T02:27:59;10.70;99.90
12303;DHT22;6214;48.012;7.862;2023-04-01T02:30:32;10.70;99.90
12303;DHT22;6214;48.012;7.862;2023-04-01T02:33:00;10.70;99.90
12303;DHT22;6214;48.012;7.862;2023-04-01T02:35:28;10.70;99.90
12303;DHT22;6214;48.012;7.862;2023-04-01T02:37:55;10.70;99.90
12303;DHT22;6214;48.012;7.862;2023-04-01T02:40:23;10.50;99.90
12303;DHT22;6214;48.012;7.862;2023-04-01T02:42:50;10.50;99.90
12303;DHT22;6214;48.012;7.862;2023-04-01T02:45:17;10.50;99.90
12303;DHT22;6214;48.012;7.862;2023-04-01T02:47:44;10.40;99.90
12303;DHT22;6214;48.012;7.862;2023-04-01T02:50:12;10.50;99.90
12303;DHT22;6214;48.012;7.862;2023-04-01T02:52:39;10.50;99.90
12303;DHT22;6214;48.012;7.862;2023-04-01T02:55:06;10.40;99.90
12303;DHT22;6214;48.012;7.862;2023-04-01T02:57:33;10.30;99.90
12303;DHT22;6214;48.012;7.862;2023-04-01T03:00:01;10.30;99.90
12303;DHT22;6214;48.012;7.862;2023-04-01T03:02:28;10.40;99.90
12303;DHT22;6214;48.012;7.862;2023-04-01T03:04:55;10.40;99.90
12303;DHT22;6214;48.012;7.862;2023-04-01T03:07:23;10.40;99.90
12303;DHT22;6214;48.012;7.862;2023-04-01T03:09:50;10.40;99.90
12303;DHT22;6214;48.012;7.862;2023-04-01T03:12:17;10.30;99.90
12303;DHT22;6214;48.012;7.862;2023-04-01T03:14:44;10.30;99.90
12303;DHT22;6214;48.012;7.862;2023-04-01T03:17:11;10.30;99.90
12303;DHT22;6214;48.012;7.862;2023-04-01T03:19:38;10.20;99.90
12303;DHT22;6214;48.012;7.862;2023-04-01T03:22:05;10.00;99.90
12303;DHT22;6214;48.012;7.862;2023-04-01T03:24:32;10.00;99.90
12303;DHT22;6214;48.012;7.862;2023-04-01T03:26:59;9.90;99.90
12303;DHT22;6214;48.012;7.862;2023-04-01T03:29:26;9.90;99.90
12303;DHT22;6214;48.012;7.862;2023-04-01T03:31:53;9.90;99.90
12303;DHT22;6214;48.012;7.862;2023-04-01T03:34:20;9.90;99.90
12303;DHT22;6214;48.012;7.862;2023-04-01T03:36:47;9.90;99.90
12303;DHT22;6214;48.012;7.862;2023-04-01T03:39:14;9.90;99.90
12303;DHT22;6214;48.012;7.862;2023-04-01T03:41:40;9.80;99.90
12303;DHT22;6214;48.012;7.862;2023-04-01T03:44:07;9.90;99.90
12303;DHT22;6214;48.012;7.862;2023-04-01T03:46:34;9.80;99.90
12303;DHT22;6214;48.012;7.862;2023-04-01T03:49:02;9.70;99.90
12303;DHT22;6214;48.012;7.862;2023-04-01T03:51:29;9.70;99.90
12303;DHT22;6214;48.012;7.862;2023-04-01T03:53:56;9.80;99.90
12303;DHT22;6214;48.012;7.862;2023-04-01T03:56:23;9.80;99.90
12303;DHT22;6214;48.012;7.862;2023-04-01T03:58:50;9.70;99.90
12303;DHT22;6214;48.012;7.862;2023-04-01T04:01:19;9.60;99.90
12303;DHT22;6214;48.012;7.862;2023-04-01T04:03:48;9.50;99.90
12303;DHT22;6214;48.012;7.862;2023-04-01T04:06:18;9.50;99.90
12303;DHT22;6214;48.012;7.862;2023-04-01T04:08:46;9.50;99.90
12303;DHT22;6214;48.012;7.862;2023-04-01T04:11:13;9.60;99.90
12303;DHT22;6214;48.012;7.862;2023-04-01T04:13:40;9.70;99.90
12303;DHT22;6214;48.012;7.862;2023-04-01T04:16:08;9.70;99.90
12303;DHT22;6214;48.012;7.862;2023-04-01T04:18:37;9.80;99.90
12303;DHT22;6214;48.012;7.862;2023-04-01T04:21:04;9.80;99.90
12303;DHT22;6214;48.012;7.862;2023-04-01T04:23:31;9.70;99.90
12303;DHT22;6214;48.012;7.862;2023-04-01T04:26:06;9.80;99.90
12303;DHT22;6214;48.012;7.862;2023-04-01T04:28:33;9.80;99.90
12303;DHT22;6214;48.012;7.862;2023-04-01T04:31:01;9.90;99.90
12303;DHT22;6214;48.012;7.862;2023-04-01T04:33:28;9.90;99.90
12303;DHT22;6214;48.012;7.862;2023-04-01T04:35:56;9.90;99.90
12303;DHT22;6214;48.012;7.862;2023-04-01T04:38:23;9.90;99.90
12303;DHT22;6214;48.012;7.862;2023-04-01T04:40:50;9.80;99.90
12303;DHT22;6214;48.012;7.862;2023-04-01T04:43:18;10.00;99.90
12303;DHT22;6214;48.012;7.862;2023-04-01T04:45:45;10.00;99.90
12303;DHT22;6214;48.012;7.862;2023-04-01T04:48:14;10.00;99.90
12303;DHT22;6214;48.012;7.862;2023-04-01T04:50:47;10.00;99.90
12303;DHT22;6214;48.012;7.862;2023-04-01T04:53:15;10.10;99.90
12303;DHT22;6214;48.012;7.862;2023-04-01T04:55:44;10.00;99.90
12303;DHT22;6214;48.012;7.862;2023-04-01T04:58:11;10.10;99.90
12303;DHT22;6214;48.012;7.862;2023-04-01T05:00:38;10.10;99.90
12303;DHT22;6214;48.012;7.862;2023-04-01T05:03:06;10.10;99.90
12303;DHT22;6214;48.012;7.862;2023-04-01T05:05:33;10.10;99.90
12303;DHT22;6214;48.012;7.862;2023-04-01T05:08:01;10.10;99.90
12303;DHT22;6214;48.012;7.862;2023-04-01T05:10:28;10.10;99.90
12303;DHT22;6214;48.012;7.862;2023-04-01T05:12:55;10.10;99.90
12303;DHT22;6214;48.012;7.862;2023-04-01T05:15:22;10.20;99.90
12303;DHT22;6214;48.012;7.862;2023-04-01T05:17:49;10.20;99.90
12303;DHT22;6214;48.012;7.862;2023-04-01T05:20:17;10.30;99.90
12303;DHT22;6214;48.012;7.862;2023-04-01T05:22:44;10.30;99.90
12303;DHT22;6214;48.012;7.862;2023-04-01T05:25:11;10.30;99.90
12303;DHT22;6214;48.012;7.862;2023-04-01T05:27:38;10.30;99.90
12303;DHT22;6214;48.012;7.862;2023-04-01T05:30:05;10.40;99.90
12303;DHT22;6214;48.012;7.862;2023-04-01T05:32:33;9.40;99.90
12303;DHT22;6214;48.012;7.862;2023-04-01T05:34:59;10.30;99.90
12303;DHT22;6214;48.012;7.862;2023-04-01T05:37:27;10.20;99.90
12303;DHT22;6214;48.012;7.862;2023-04-01T05:39:54;10.30;99.90
12303;DHT22;6214;48.012;7.862;2023-04-01T05:42:21;10.30;99.90
12303;DHT22;6214;48.012;7.862;2023-04-01T05:44:48;10.40;99.90
12303;DHT22;6214;48.012;7.862;2023-04-01T05:47:15;10.50;99.90
12303;DHT22;6214;48.012;7.862;2023-04-01T05:49:42;10.50;99.90
12303;DHT22;6214;48.012;7.862;2023-04-01T05:52:09;10.60;99.90
12303;DHT22;6214;48.012;7.862;2023-04-01T05:54:36;10.60;99.90
12303;DHT22;6214;48.012;7.862;2023-04-01T05:57:03;10.50;99.90
12303;DHT22;6214;48.012;7.862;2023-04-01T05:59:30;10.60;99.90
12303;DHT22;6214;48.012;7.862;2023-04-01T06:01:58;10.70;99.90
12303;DHT22;6214;48.012;7.862;2023-04-01T06:04:28;10.70;99.90
12303;DHT22;6214;48.012;7.862;2023-04-01T06:06:58;10.80;99.90
12303;DHT22;6214;48.012;7.862;2023-04-01T06:09:29;10.90;99.90
12303;DHT22;6214;48.012;7.862;2023-04-01T06:14:45;10.90;99.90
12303;DHT22;6214;48.012;7.862;2023-04-01T06:20:27;10.90;99.90
12303;DHT22;6214;48.012;7.862;2023-04-01T06:25:52;10.90;99.90
12303;DHT22;6214;48.012;7.862;2023-04-01T06:28:39;11.00;99.90
12303;DHT22;6214;48.012;7.862;2023-04-01T06:41:39;11.00;99.90
12303;DHT22;6214;48.012;7.862;2023-04-01T06:47:25;11.30;99.90
12303;DHT22;6214;48.012;7.862;2023-04-01T06:52:56;11.40;99.90
12303;DHT22;6214;48.012;7.862;2023-04-01T06:55:42;11.60;99.90
12303;DHT22;6214;48.012;7.862;2023-04-01T06:58:36;11.70;99.90
12303;DHT22;6214;48.012;7.862;2023-04-01T07:01:07;11.70;99.90
12303;DHT22;6214;48.012;7.862;2023-04-01T07:03:44;11.70;99.90
12303;DHT22;6214;48.012;7.862;2023-04-01T07:06:40;11.80;99.90
12303;DHT22;6214;48.012;7.862;2023-04-01T07:09:14;11.80;99.90
12303;DHT22;6214;48.012;7.862;2023-04-01T07:11:42;11.90;99.90
12303;DHT22;6214;48.012;7.862;2023-04-01T07:16:52;12.00;99.90
12303;DHT22;6214;48.012;7.862;2023-04-01T07:22:33;12.10;99.90
12303;DHT22;6214;48.012;7.862;2023-04-01T07:25:51;12.10;99.90
12303;DHT22;6214;48.012;7.862;2023-04-01T07:28:00;12.10;99.90
12303;DHT22;6214;48.012;7.862;2023-04-01T07:33:27;12.00;99.90
12303;DHT22;6214;48.012;7.862;2023-04-01T07:36:12;12.00;99.90
12303;DHT22;6214;48.012;7.862;2023-04-01T07:38:54;12.20;99.90
12303;DHT22;6214;48.012;7.862;2023-04-01T07:41:52;12.20;99.90
12303;DHT22;6214;48.012;7.862;2023-04-01T07:53:25;12.10;99.90
12303;DHT22;6214;48.012;7.862;2023-04-01T08:03:48;11.80;99.90
12303;DHT22;6214;48.012;7.862;2023-04-01T08:22:09;12.20;99.90
12303;DHT22;6214;48.012;7.862;2023-04-01T08:24:43;12.10;99.90
12303;DHT22;6214;48.012;7.862;2023-04-01T08:33:23;11.70;99.90
12303;DHT22;6214;48.012;7.862;2023-04-01T08:38:32;12.00;99.90
12303;DHT22;6214;48.012;7.862;2023-04-01T08:49:43;12.40;99.90
12303;DHT22;6214;48.012;7.862;2023-04-01T08:55:25;12.50;99.90
12303;DHT22;6214;48.012;7.862;2023-04-01T09:10:11;12.90;99.90
12303;DHT22;6214;48.012;7.862;2023-04-01T09:21:24;12.70;99.90
12303;DHT22;6214;48.012;7.862;2023-04-01T09:26:48;12.60;99.90
12303;DHT22;6214;48.012;7.862;2023-04-01T09:35:41;12.40;99.90
12303;DHT22;6214;48.012;7.862;2023-04-01T09:38:57;12.40;99.90
12303;DHT22;6214;48.012;7.862;2023-04-01T09:41:35;12.50;99.90
12303;DHT22;6214;48.012;7.862;2023-04-01T09:44:35;12.50;99.90
12303;DHT22;6214;48.012;7.862;2023-04-01T09:50:14;12.70;99.90
12303;DHT22;6214;48.012;7.862;2023-04-01T09:52:53;12.60;99.90
12303;DHT22;6214;48.012;7.862;2023-04-01T10:01:12;12.70;99.90
12303;DHT22;6214;48.012;7.862;2023-04-01T10:09:39;12.90;99.90
12303;DHT22;6214;48.012;7.862;2023-04-01T10:18:28;12.70;99.90
12303;DHT22;6214;48.012;7.862;2023-04-01T10:40:51;12.70;99.90
12303;DHT22;6214;48.012;7.862;2023-04-01T10:49:06;13.10;99.90
12303;DHT22;6214;48.012;7.862;2023-04-01T11:31:09;13.40;99.90
12303;DHT22;6214;48.012;7.862;2023-04-01T11:34:07;13.30;99.90
12303;DHT22;6214;48.012;7.862;2023-04-01T11:40:08;13.10;99.90
12303;DHT22;6214;48.012;7.862;2023-04-01T12:11:52;13.10;99.90
12303;DHT22;6214;48.012;7.862;2023-04-01T12:20:28;13.20;99.90
12303;DHT22;6214;48.012;7.862;2023-04-01T12:22:46;13.40;99.90
12303;DHT22;6214;48.012;7.862;2023-04-01T12:33:45;13.70;99.90
12303;DHT22;6214;48.012;7.862;2023-04-01T12:36:46;13.60;99.90
12303;DHT22;6214;48.012;7.862;2023-04-01T12:55:43;13.60;99.90
12303;DHT22;6214;48.012;7.862;2023-04-01T13:09:17;14.00;99.90
12303;DHT22;6214;48.012;7.862;2023-04-01T13:17:29;13.90;99.90
12303;DHT22;6214;48.012;7.862;2023-04-01T13:26:06;14.10;99.90
12303;DHT22;6214;48.012;7.862;2023-04-01T13:28:53;14.10;99.90
12303;DHT22;6214;48.012;7.862;2023-04-01T13:31:31;14.30;99.90
12303;DHT22;6214;48.012;7.862;2023-04-01T13:42:29;14.30;99.90
12303;DHT22;6214;48.012;7.862;2023-04-01T13:45:15;14.70;99.90
12303;DHT22;6214;48.012;7.862;2023-04-01T13:51:25;14.90;99.90
12303;DHT22;6214;48.012;7.862;2023-04-01T13:54:05;15.10;99.90
12303;DHT22;6214;48.012;7.862;2023-04-01T14:00:35;15.50;99.90
12303;DHT22;6214;48.012;7.862;2023-04-01T14:06:31;16.10;99.90
12303;DHT22;6214;48.012;7.862;2023-04-01T14:09:11;16.20;99.90
12303;DHT22;6214;48.012;7.862;2023-04-01T14:12:07;16.00;99.90
12303;DHT22;6214;48.012;7.862;2023-04-01T14:23:05;16.60;99.90
12303;DHT22;6214;48.012;7.862;2023-04-01T14:37:15;15.00;99.90
12303;DHT22;6214;48.012;7.862;2023-04-01T14:51:22;14.20;99.90
12303;DHT22;6214;48.012;7.862;2023-04-01T15:07:55;14.90;99.90
12303;DHT22;6214;48.012;7.862;2023-04-01T15:33:52;14.80;99.90
12303;DHT22;6214;48.012;7.862;2023-04-01T15:36:43;14.80;99.90
12303;DHT22;6214;48.012;7.862;2023-04-01T15:39:14;15.00;99.90
12303;DHT22;6214;48.012;7.862;2023-04-01T15:52:58;13.80;99.90
12303;DHT22;6214;48.012;7.862;2023-04-01T16:01:35;13.40;99.90
12303;DHT22;6214;48.012;7.862;2023-04-01T16:06:59;13.20;99.90
12303;DHT22;6214;48.012;7.862;2023-04-01T16:12:16;13.10;99.90
12303;DHT22;6214;48.012;7.862;2023-04-01T16:17:58;13.30;99.90
12303;DHT22;6214;48.012;7.862;2023-04-01T16:21:01;13.50;99.90
12303;DHT22;6214;48.012;7.862;2023-04-01T16:23:36;13.90;99.90
12303;DHT22;6214;48.012;7.862;2023-04-01T16:26:20;14.10;99.90
12303;DHT22;6214;48.012;7.862;2023-04-01T16:31:34;14.30;99.90
12303;DHT22;6214;48.012;7.862;2023-04-01T16:36:59;14.20;99.90
12303;DHT22;6214;48.012;7.862;2023-04-01T16:39:42;14.30;99.90
12303;DHT22;6214;48.012;7.862;2023-04-01T16:42:35;14.30;99.90
12303;DHT22;6214;48.012;7.862;2023-04-01T16:47:41;14.50;99.90
12303;DHT22;6214;48.012;7.862;2023-04-01T16:50:24;14.50;99.90
12303;DHT22;6214;48.012;7.862;2023-04-01T16:53:36;14.20;99.90
12303;DHT22;6214;48.012;7.862;2023-04-01T16:56:21;14.20;99.90
12303;DHT22;6214;48.012;7.862;2023-04-01T16:59:14;14.10;99.90
12303;DHT22;6214;48.012;7.862;2023-04-01T17:02:02;14.00;99.90
12303;DHT22;6214;48.012;7.862;2023-04-01T17:05:11;13.70;99.90
12303;DHT22;6214;48.012;7.862;2023-04-01T17:08:00;13.80;99.90
12303;DHT22;6214;48.012;7.862;2023-04-01T17:10:53;13.60;99.90
12303;DHT22;6214;48.012;7.862;2023-04-01T17:22:03;13.50;99.90
12303;DHT22;6214;48.012;7.862;2023-04-01T17:25:37;13.60;99.90
12303;DHT22;6214;48.012;7.862;2023-04-01T17:27:48;13.50;99.90
12303;DHT22;6214;48.012;7.862;2023-04-01T17:32:59;13.70;99.90
12303;DHT22;6214;48.012;7.862;2023-04-01T17:35:33;13.70;99.90
12303;DHT22;6214;48.012;7.862;2023-04-01T17:38:16;13.60;99.90
12303;DHT22;6214;48.012;7.862;2023-04-01T17:41:06;13.60;99.90
12303;DHT22;6214;48.012;7.862;2023-04-01T17:44:00;13.50;99.90
12303;DHT22;6214;48.012;7.862;2023-04-01T17:49:37;13.20;99.90
12303;DHT22;6214;48.012;7.862;2023-04-01T18:14:09;12.40;99.90
12303;DHT22;6214;48.012;7.862;2023-04-01T18:16:55;12.30;99.90
12303;DHT22;6214;48.012;7.862;2023-04-01T18:19:42;12.20;99.90
12303;DHT22;6214;48.012;7.862;2023-04-01T18:22:45;12.10;99.90
12303;DHT22;6214;48.012;7.862;2023-04-01T18:25:44;12.10;99.90
12303;DHT22;6214;48.012;7.862;2023-04-01T18:31:09;12.00;99.90
12303;DHT22;6214;48.012;7.862;2023-04-01T18:39:15;11.90;99.90
12303;DHT22;6214;48.012;7.862;2023-04-01T18:50:50;11.90;99.90
12303;DHT22;6214;48.012;7.862;2023-04-01T18:56:02;11.70;99.90
12303;DHT22;6214;48.012;7.862;2023-04-01T18:58:46;11.70;99.90
12303;DHT22;6214;48.012;7.862;2023-04-01T19:04:19;11.50;99.90
12303;DHT22;6214;48.012;7.862;2023-04-01T19:15:02;11.60;99.90
12303;DHT22;6214;48.012;7.862;2023-04-01T19:20:20;11.40;99.90
12303;DHT22;6214;48.012;7.862;2023-04-01T19:25:39;11.40;99.90
12303;DHT22;6214;48.012;7.862;2023-04-01T19:28:49;11.30;99.90
12303;DHT22;6214;48.012;7.862;2023-04-01T19:34:24;11.20;99.90
12303;DHT22;6214;48.012;7.862;2023-04-01T19:50:53;11.00;99.90
12303;DHT22;6214;48.012;7.862;2023-04-01T19:56:18;10.80;99.90
12303;DHT22;6214;48.012;7.862;2023-04-01T20:02:33;10.80;99.90
12303;DHT22;6214;48.012;7.862;2023-04-01T20:04:53;10.80;99.90
12303;DHT22;6214;48.012;7.862;2023-04-01T20:07:31;10.90;99.90
12303;DHT22;6214;48.012;7.862;2023-04-01T20:10:25;10.90;99.90
12303;DHT22;6214;48.012;7.862;2023-04-01T20:15:41;10.90;99.90
12303;DHT22;6214;48.012;7.862;2023-04-01T20:20:57;10.90;99.90
12303;DHT22;6214;48.012;7.862;2023-04-01T20:23:43;10.80;99.90
12303;DHT22;6214;48.012;7.862;2023-04-01T20:26:13;10.80;99.90
12303;DHT22;6214;48.012;7.862;2023-04-01T20:31:44;10.80;99.90
12303;DHT22;6214;48.012;7.862;2023-04-01T20:37:06;10.90;99.90
12303;DHT22;6214;48.012;7.862;2023-04-01T20:58:23;11.40;99.90
12303;DHT22;6214;48.012;7.862;2023-04-01T21:01:02;11.50;99.90
12303;DHT22;6214;48.012;7.862;2023-04-01T21:06:31;11.60;99.90
12303;DHT22;6214;48.012;7.862;2023-04-01T21:15:02;11.70;99.90
12303;DHT22;6214;48.012;7.862;2023-04-01T21:26:04;11.90;99.90
12303;DHT22;6214;48.012;7.862;2023-04-01T21:34:41;12.00;99.90
12303;DHT22;6214;48.012;7.862;2023-04-01T21:37:31;11.90;99.90
12303;DHT22;6214;48.012;7.862;2023-04-01T21:40:52;11.90;99.90
12303;DHT22;6214;48.012;7.862;2023-04-01T21:43:25;12.00;99.90
12303;DHT22;6214;48.012;7.862;2023-04-01T22:06:19;11.50;99.90
12303;DHT22;6214;48.012;7.862;2023-04-01T22:09:03;11.50;99.90
12303;DHT22;6214;48.012;7.862;2023-04-01T22:14:17;11.40;99.90
12303;DHT22;6214;48.012;7.862;2023-04-01T22:16:52;11.50;99.90
12303;DHT22;6214;48.012;7.862;2023-04-01T22:22:12;11.40;99.90
12303;DHT22;6214;48.012;7.862;2023-04-01T22:27:28;11.40;99.90
12303;DHT22;6214;48.012;7.862;2023-04-01T22:32:38;11.40;99.90
12303;DHT22;6214;48.012;7.862;2023-04-01T22:40:48;11.70;99.90
12303;DHT22;6214;48.012;7.862;2023-04-01T22:43:32;11.60;99.90
12303;DHT22;6214;48.012;7.862;2023-04-01T22:48:59;11.60;99.90
12303;DHT22;6214;48.012;7.862;2023-04-01T22:51:51;11.50;99.90
12303;DHT22;6214;48.012;7.862;2023-04-01T22:57:09;11.50;99.90
12303;DHT22;6214;48.012;7.862;2023-04-01T23:00:15;11.30;99.90
12303;DHT22;6214;48.012;7.862;2023-04-01T23:03:06;11.10;99.90
12303;DHT22;6214;48.012;7.862;2023-04-01T23:05:41;11.20;99.90
12303;DHT22;6214;48.012;7.862;2023-04-01T23:11:43;11.30;99.90
12303;DHT22;6214;48.012;7.862;2023-04-01T23:16:51;11.30;99.90
12303;DHT22;6214;48.012;7.862;2023-04-01T23:19:29;11.50;99.90
12303;DHT22;6214;48.012;7.862;2023-04-01T23:24:34;11.40;99.90
12303;DHT22;6214;48.012;7.862;2023-04-01T23:27:27;11.30;99.90
12303;DHT22;6214;48.012;7.862;2023-04-01T23:29:54;11.30;99.90
12303;DHT22;6214;48.012;7.862;2023-04-01T23:32:25;11.30;99.90
12303;DHT22;6214;48.012;7.862;2023-04-01T23:35:00;11.20;99.90
12303;DHT22;6214;48.012;7.862;2023-04-01T23:37:27;11.30;99.90
12303;DHT22;6214;48.012;7.862;2023-04-01T23:39:56;11.40;99.90
12303;DHT22;6214;48.012;7.862;2023-04-01T23:42:32;11.40;99.90
12303;DHT22;6214;48.012;7.862;2023-04-01T23:45:15;11.40;99.90
12303;DHT22;6214;48.012;7.862;2023-04-01T23:47:48;11.40;99.90
12303;DHT22;6214;48.012;7.862;2023-04-01T23:50:23;11.40;99.90
12303;DHT22;6214;48.012;7.862;2023-04-01T23:53:23;11.30;99.90
12303;DHT22;6214;48.012;7.862;2023-04-01T23:55:52;11.30;99.90
12303;DHT22;6214;48.012;7.862;2023-04-01T23:58:38;11.20;99.90
